sensor_id;sensor_type;location;lat;lon;timestamp;P1;durP1;ratioP1;P2;durP2;ratioP2
21729;SDS011;11027;51.030;13.812;2022-09-17T00:00:48;1.35;;;0.60;;
21729;SDS011;11027;51.030;13.812;2022-09-17T00:03:14;4.15;;;1.10;;
21729;SDS011;11027;51.030;13.812;2022-09-17T00:05:40;3.42;;;1.10;;
21729;SDS011;11027;51.030;13.812;2022-09-17T00:08:07;6.35;;;1.00;;
21729;SDS011;11027;51.030;13.812;2022-09-17T00:10:39;3.78;;;0.88;;
21729;SDS011;11027;51.030;13.812;2022-09-17T00:13:06;3.95;;;0.90;;
21729;SDS011;11027;51.030;13.812;2022-09-17T00:15:38;3.20;;;1.10;;
21729;SDS011;11027;51.030;13.812;2022-09-17T00:18:13;5.63;;;1.00;;
21729;SDS011;11027;51.030;13.812;2022-09-17T00:20:40;4.40;;;0.93;;
21729;SDS011;11027;51.030;13.812;2022-09-17T00:23:07;5.85;;;1.10;;
21729;SDS011;11027;51.030;13.812;2022-09-17T00:25:33;3.05;;;0.88;;
21729;SDS011;11027;51.030;13.812;2022-09-17T00:28:02;11.38;;;1.02;;
21729;SDS011;11027;51.030;13.812;2022-09-17T00:30:27;5.53;;;1.08;;
21729;SDS011;11027;51.030;13.812;2022-09-17T00:32:52;3.83;;;0.82;;
21729;SDS011;11027;51.030;13.812;2022-09-17T00:35:18;4.97;;;1.33;;
21729;SDS011;11027;51.030;13.812;2022-09-17T00:37:43;3.13;;;0.75;;
21729;SDS011;11027;51.030;13.812;2022-09-17T00:40:08;4.80;;;1.20;;
21729;SDS011;11027;51.030;13.812;2022-09-17T00:42:34;5.18;;;0.85;;
21729;SDS011;11027;51.030;13.812;2022-09-17T00:44:59;6.40;;;1.00;;
21729;SDS011;11027;51.030;13.812;2022-09-17T00:47:30;4.93;;;0.98;;
21729;SDS011;11027;51.030;13.812;2022-09-17T00:50:11;5.57;;;0.95;;
21729;SDS011;11027;51.030;13.812;2022-09-17T00:52:42;3.88;;;0.90;;
21729;SDS011;11027;51.030;13.812;2022-09-17T00:55:26;3.97;;;0.90;;
21729;SDS011;11027;51.030;13.812;2022-09-17T00:57:57;5.47;;;1.25;;
21729;SDS011;11027;51.030;13.812;2022-09-17T01:00:25;7.00;;;1.10;;
21729;SDS011;11027;51.030;13.812;2022-09-17T01:02:52;3.92;;;1.05;;
21729;SDS011;11027;51.030;13.812;2022-09-17T01:05:20;8.88;;;0.90;;
21729;SDS011;11027;51.030;13.812;2022-09-17T01:10:38;4.87;;;0.97;;
21729;SDS011;11027;51.030;13.812;2022-09-17T01:16:26;3.42;;;0.68;;
21729;SDS011;11027;51.030;13.812;2022-09-17T01:27:29;4.35;;;0.80;;
21729;SDS011;11027;51.030;13.812;2022-09-17T01:30:14;3.15;;;0.75;;
21729;SDS011;11027;51.030;13.812;2022-09-17T01:33:07;4.80;;;0.98;;
21729;SDS011;11027;51.030;13.812;2022-09-17T01:35:52;4.63;;;1.15;;
21729;SDS011;11027;51.030;13.812;2022-09-17T01:38:41;2.90;;;0.77;;
21729;SDS011;11027;51.030;13.812;2022-09-17T01:41:28;6.78;;;0.93;;
21729;SDS011;11027;51.030;13.812;2022-09-17T01:44:21;4.38;;;0.80;;
21729;SDS011;11027;51.030;13.812;2022-09-17T01:46:54;6.68;;;0.90;;
21729;SDS011;11027;51.030;13.812;2022-09-17T01:49:31;4.15;;;0.80;;
21729;SDS011;11027;51.030;13.812;2022-09-17T01:52:02;4.72;;;0.98;;
21729;SDS011;11027;51.030;13.812;2022-09-17T01:54:36;7.60;;;0.90;;
21729;SDS011;11027;51.030;13.812;2022-09-17T01:57:11;4.28;;;0.80;;
21729;SDS011;11027;51.030;13.812;2022-09-17T01:59:43;5.93;;;1.00;;
21729;SDS011;11027;51.030;13.812;2022-09-17T02:02:15;3.85;;;0.70;;
21729;SDS011;11027;51.030;13.812;2022-09-17T02:04:51;4.47;;;0.75;;
21729;SDS011;11027;51.030;13.812;2022-09-17T02:07:24;4.90;;;1.05;;
21729;SDS011;11027;51.030;13.812;2022-09-17T02:09:54;3.20;;;1.02;;
21729;SDS011;11027;51.030;13.812;2022-09-17T02:12:29;5.05;;;1.10;;
21729;SDS011;11027;51.030;13.812;2022-09-17T02:15:00;5.10;;;0.85;;
21729;SDS011;11027;51.030;13.812;2022-09-17T02:19:59;4.53;;;1.05;;
21729;SDS011;11027;51.030;13.812;2022-09-17T02:22:27;5.85;;;0.80;;
21729;SDS011;11027;51.030;13.812;2022-09-17T02:28:04;3.47;;;0.80;;
21729;SDS011;11027;51.030;13.812;2022-09-17T02:30:43;5.75;;;0.93;;
21729;SDS011;11027;51.030;13.812;2022-09-17T02:33:10;4.63;;;0.80;;
21729;SDS011;11027;51.030;13.812;2022-09-17T02:35:38;6.07;;;0.80;;
21729;SDS011;11027;51.030;13.812;2022-09-17T02:38:03;3.45;;;0.90;;
21729;SDS011;11027;51.030;13.812;2022-09-17T02:40:30;4.18;;;0.70;;
21729;SDS011;11027;51.030;13.812;2022-09-17T02:43:09;8.07;;;1.02;;
21729;SDS011;11027;51.030;13.812;2022-09-17T02:46:27;4.15;;;1.00;;
21729;SDS011;11027;51.030;13.812;2022-09-17T02:48:56;3.97;;;0.73;;
21729;SDS011;11027;51.030;13.812;2022-09-17T02:54:15;3.83;;;1.00;;
21729;SDS011;11027;51.030;13.812;2022-09-17T02:57:06;3.07;;;0.93;;
21729;SDS011;11027;51.030;13.812;2022-09-17T02:59:53;3.58;;;0.70;;
21729;SDS011;11027;51.030;13.812;2022-09-17T03:02:31;3.72;;;1.00;;
21729;SDS011;11027;51.030;13.812;2022-09-17T03:05:07;3.15;;;0.63;;
21729;SDS011;11027;51.030;13.812;2022-09-17T03:07:33;5.15;;;0.65;;
21729;SDS011;11027;51.030;13.812;2022-09-17T03:09:59;3.22;;;0.70;;
21729;SDS011;11027;51.030;13.812;2022-09-17T03:12:24;5.30;;;0.60;;
21729;SDS011;11027;51.030;13.812;2022-09-17T03:14:50;5.65;;;0.95;;
21729;SDS011;11027;51.030;13.812;2022-09-17T03:17:16;4.03;;;1.05;;
21729;SDS011;11027;51.030;13.812;2022-09-17T03:19:41;6.97;;;1.13;;
21729;SDS011;11027;51.030;13.812;2022-09-17T03:22:06;5.35;;;0.80;;
21729;SDS011;11027;51.030;13.812;2022-09-17T03:24:31;4.25;;;0.88;;
21729;SDS011;11027;51.030;13.812;2022-09-17T03:26:57;3.72;;;0.80;;
21729;SDS011;11027;51.030;13.812;2022-09-17T03:29:22;3.38;;;0.80;;
21729;SDS011;11027;51.030;13.812;2022-09-17T03:31:47;5.90;;;0.90;;
21729;SDS011;11027;51.030;13.812;2022-09-17T03:34:13;4.25;;;0.82;;
21729;SDS011;11027;51.030;13.812;2022-09-17T03:36:38;5.07;;;1.02;;
21729;SDS011;11027;51.030;13.812;2022-09-17T03:39:03;5.38;;;0.68;;
21729;SDS011;11027;51.030;13.812;2022-09-17T03:41:28;3.92;;;1.00;;
21729;SDS011;11027;51.030;13.812;2022-09-17T03:43:54;3.10;;;0.90;;
21729;SDS011;11027;51.030;13.812;2022-09-17T03:46:19;3.60;;;1.00;;
21729;SDS011;11027;51.030;13.812;2022-09-17T03:48:44;4.28;;;0.80;;
21729;SDS011;11027;51.030;13.812;2022-09-17T03:51:10;5.28;;;0.88;;
21729;SDS011;11027;51.030;13.812;2022-09-17T03:53:36;8.10;;;0.95;;
21729;SDS011;11027;51.030;13.812;2022-09-17T03:56:02;2.80;;;0.68;;
21729;SDS011;11027;51.030;13.812;2022-09-17T03:58:29;7.70;;;1.33;;
21729;SDS011;11027;51.030;13.812;2022-09-17T04:00:55;4.07;;;0.93;;
21729;SDS011;11027;51.030;13.812;2022-09-17T04:03:24;5.55;;;1.13;;
21729;SDS011;11027;51.030;13.812;2022-09-17T04:05:51;4.55;;;0.90;;
21729;SDS011;11027;51.030;13.812;2022-09-17T04:08:16;7.47;;;1.10;;
21729;SDS011;11027;51.030;13.812;2022-09-17T04:10:42;5.18;;;0.90;;
21729;SDS011;11027;51.030;13.812;2022-09-17T04:13:08;9.90;;;1.00;;
21729;SDS011;11027;51.030;13.812;2022-09-17T04:15:33;5.38;;;0.80;;
21729;SDS011;11027;51.030;13.812;2022-09-17T04:17:59;4.25;;;0.95;;
21729;SDS011;11027;51.030;13.812;2022-09-17T04:20:24;5.43;;;1.10;;
21729;SDS011;11027;51.030;13.812;2022-09-17T04:22:50;5.70;;;1.00;;
21729;SDS011;11027;51.030;13.812;2022-09-17T04:25:15;3.78;;;0.95;;
21729;SDS011;11027;51.030;13.812;2022-09-17T04:27:41;2.33;;;0.65;;
21729;SDS011;11027;51.030;13.812;2022-09-17T04:30:07;6.07;;;0.73;;
21729;SDS011;11027;51.030;13.812;2022-09-17T04:32:33;5.10;;;1.00;;
21729;SDS011;11027;51.030;13.812;2022-09-17T04:34:58;5.47;;;1.10;;
21729;SDS011;11027;51.030;13.812;2022-09-17T04:37:23;5.93;;;1.33;;
21729;SDS011;11027;51.030;13.812;2022-09-17T04:39:49;3.70;;;0.88;;
21729;SDS011;11027;51.030;13.812;2022-09-17T04:42:15;2.58;;;0.68;;
21729;SDS011;11027;51.030;13.812;2022-09-17T04:44:40;4.15;;;0.85;;
21729;SDS011;11027;51.030;13.812;2022-09-17T04:47:05;4.75;;;0.90;;
21729;SDS011;11027;51.030;13.812;2022-09-17T04:49:31;4.13;;;0.90;;
21729;SDS011;11027;51.030;13.812;2022-09-17T04:51:56;4.57;;;0.80;;
21729;SDS011;11027;51.030;13.812;2022-09-17T04:54:22;6.15;;;0.80;;
21729;SDS011;11027;51.030;13.812;2022-09-17T04:56:47;7.00;;;1.10;;
21729;SDS011;11027;51.030;13.812;2022-09-17T04:59:12;4.60;;;0.98;;
21729;SDS011;11027;51.030;13.812;2022-09-17T05:01:37;3.45;;;0.90;;
21729;SDS011;11027;51.030;13.812;2022-09-17T05:04:03;7.25;;;0.90;;
21729;SDS011;11027;51.030;13.812;2022-09-17T05:06:28;2.22;;;0.70;;
21729;SDS011;11027;51.030;13.812;2022-09-17T05:08:53;2.75;;;0.90;;
21729;SDS011;11027;51.030;13.812;2022-09-17T05:11:18;2.85;;;0.95;;
21729;SDS011;11027;51.030;13.812;2022-09-17T05:13:44;3.65;;;0.80;;
21729;SDS011;11027;51.030;13.812;2022-09-17T05:16:09;2.97;;;0.93;;
21729;SDS011;11027;51.030;13.812;2022-09-17T05:18:34;3.75;;;0.98;;
21729;SDS011;11027;51.030;13.812;2022-09-17T05:20:59;4.45;;;1.05;;
21729;SDS011;11027;51.030;13.812;2022-09-17T05:23:25;5.70;;;0.95;;
21729;SDS011;11027;51.030;13.812;2022-09-17T05:25:50;4.95;;;0.95;;
21729;SDS011;11027;51.030;13.812;2022-09-17T05:28:16;3.13;;;1.00;;
21729;SDS011;11027;51.030;13.812;2022-09-17T05:30:42;4.93;;;1.10;;
21729;SDS011;11027;51.030;13.812;2022-09-17T05:33:07;2.85;;;1.10;;
21729;SDS011;11027;51.030;13.812;2022-09-17T05:35:32;4.05;;;0.95;;
21729;SDS011;11027;51.030;13.812;2022-09-17T05:38:00;4.35;;;1.00;;
21729;SDS011;11027;51.030;13.812;2022-09-17T05:40:27;2.35;;;1.00;;
21729;SDS011;11027;51.030;13.812;2022-09-17T05:42:59;3.42;;;0.93;;
21729;SDS011;11027;51.030;13.812;2022-09-17T05:45:25;3.08;;;1.05;;
21729;SDS011;11027;51.030;13.812;2022-09-17T05:47:58;1.77;;;0.88;;
21729;SDS011;11027;51.030;13.812;2022-09-17T05:50:26;2.28;;;0.90;;
21729;SDS011;11027;51.030;13.812;2022-09-17T05:52:52;1.85;;;0.90;;
21729;SDS011;11027;51.030;13.812;2022-09-17T05:55:18;1.85;;;0.90;;
21729;SDS011;11027;51.030;13.812;2022-09-17T05:57:46;1.30;;;0.70;;
21729;SDS011;11027;51.030;13.812;2022-09-17T06:00:11;0.77;;;0.77;;
21729;SDS011;11027;51.030;13.812;2022-09-17T06:02:37;5.05;;;0.90;;
21729;SDS011;11027;51.030;13.812;2022-09-17T06:05:03;1.67;;;0.80;;
21729;SDS011;11027;51.030;13.812;2022-09-17T06:07:29;2.58;;;0.75;;
21729;SDS011;11027;51.030;13.812;2022-09-17T06:09:54;2.00;;;0.80;;
21729;SDS011;11027;51.030;13.812;2022-09-17T06:12:21;2.03;;;0.60;;
21729;SDS011;11027;51.030;13.812;2022-09-17T06:14:47;1.20;;;0.60;;
21729;SDS011;11027;51.030;13.812;2022-09-17T06:17:12;2.33;;;0.60;;
21729;SDS011;11027;51.030;13.812;2022-09-17T06:19:37;1.00;;;0.73;;
21729;SDS011;11027;51.030;13.812;2022-09-17T06:22:03;1.88;;;0.60;;
21729;SDS011;11027;51.030;13.812;2022-09-17T06:24:29;2.08;;;0.77;;
21729;SDS011;11027;51.030;13.812;2022-09-17T06:26:55;0.98;;;0.57;;
21729;SDS011;11027;51.030;13.812;2022-09-17T06:29:20;1.25;;;0.45;;
21729;SDS011;11027;51.030;13.812;2022-09-17T06:31:46;1.40;;;0.50;;
21729;SDS011;11027;51.030;13.812;2022-09-17T06:34:12;0.73;;;0.52;;
21729;SDS011;11027;51.030;13.812;2022-09-17T06:36:37;0.77;;;0.50;;
21729;SDS011;11027;51.030;13.812;2022-09-17T06:39:03;1.13;;;0.55;;
21729;SDS011;11027;51.030;13.812;2022-09-17T06:41:28;0.90;;;0.50;;
21729;SDS011;11027;51.030;13.812;2022-09-17T06:43:54;1.70;;;0.45;;
21729;SDS011;11027;51.030;13.812;2022-09-17T06:46:19;0.73;;;0.40;;
21729;SDS011;11027;51.030;13.812;2022-09-17T06:48:44;2.55;;;0.50;;
21729;SDS011;11027;51.030;13.812;2022-09-17T06:51:10;0.70;;;0.38;;
21729;SDS011;11027;51.030;13.812;2022-09-17T06:53:37;0.20;;;0.20;;
21729;SDS011;11027;51.030;13.812;2022-09-17T06:56:03;0.65;;;0.38;;
21729;SDS011;11027;51.030;13.812;2022-09-17T06:58:29;0.43;;;0.30;;
21729;SDS011;11027;51.030;13.812;2022-09-17T07:00:59;0.55;;;0.32;;
21729;SDS011;11027;51.030;13.812;2022-09-17T07:03:25;0.65;;;0.30;;
21729;SDS011;11027;51.030;13.812;2022-09-17T07:05:54;2.70;;;0.30;;
21729;SDS011;11027;51.030;13.812;2022-09-17T07:08:20;0.20;;;0.20;;
21729;SDS011;11027;51.030;13.812;2022-09-17T07:10:46;0.57;;;0.20;;
21729;SDS011;11027;51.030;13.812;2022-09-17T07:13:11;0.20;;;0.20;;
21729;SDS011;11027;51.030;13.812;2022-09-17T07:15:36;0.75;;;0.30;;
21729;SDS011;11027;51.030;13.812;2022-09-17T07:18:08;0.20;;;0.20;;
21729;SDS011;11027;51.030;13.812;2022-09-17T07:20:34;0.50;;;0.40;;
21729;SDS011;11027;51.030;13.812;2022-09-17T07:23:00;0.55;;;0.20;;
21729;SDS011;11027;51.030;13.812;2022-09-17T07:25:25;0.20;;;0.20;;
21729;SDS011;11027;51.030;13.812;2022-09-17T07:27:51;1.08;;;0.30;;
21729;SDS011;11027;51.030;13.812;2022-09-17T07:30:17;1.40;;;0.50;;
21729;SDS011;11027;51.030;13.812;2022-09-17T07:32:43;0.40;;;0.40;;
21729;SDS011;11027;51.030;13.812;2022-09-17T07:35:08;1.13;;;0.57;;
21729;SDS011;11027;51.030;13.812;2022-09-17T07:37:34;1.80;;;0.95;;
21729;SDS011;11027;51.030;13.812;2022-09-17T07:39:59;1.75;;;1.10;;
21729;SDS011;11027;51.030;13.812;2022-09-17T07:42:24;1.48;;;1.15;;
21729;SDS011;11027;51.030;13.812;2022-09-17T07:44:51;4.25;;;1.48;;
21729;SDS011;11027;51.030;13.812;2022-09-17T07:47:16;4.50;;;1.73;;
21729;SDS011;11027;51.030;13.812;2022-09-17T07:49:42;4.63;;;1.80;;
21729;SDS011;11027;51.030;13.812;2022-09-17T07:52:07;6.32;;;2.05;;
21729;SDS011;11027;51.030;13.812;2022-09-17T07:54:32;5.88;;;2.35;;
21729;SDS011;11027;51.030;13.812;2022-09-17T07:56:58;9.80;;;2.90;;
21729;SDS011;11027;51.030;13.812;2022-09-17T07:59:24;7.30;;;2.40;;
21729;SDS011;11027;51.030;13.812;2022-09-17T08:01:49;6.53;;;2.40;;
21729;SDS011;11027;51.030;13.812;2022-09-17T08:04:14;7.32;;;2.47;;
21729;SDS011;11027;51.030;13.812;2022-09-17T08:06:40;5.80;;;3.00;;
21729;SDS011;11027;51.030;13.812;2022-09-17T08:09:05;9.80;;;2.80;;
21729;SDS011;11027;51.030;13.812;2022-09-17T08:11:31;7.93;;;2.72;;
21729;SDS011;11027;51.030;13.812;2022-09-17T08:13:57;13.93;;;2.78;;
21729;SDS011;11027;51.030;13.812;2022-09-17T08:16:23;10.52;;;3.17;;
21729;SDS011;11027;51.030;13.812;2022-09-17T08:18:52;7.85;;;2.80;;
21729;SDS011;11027;51.030;13.812;2022-09-17T08:21:18;12.55;;;3.08;;
21729;SDS011;11027;51.030;13.812;2022-09-17T08:23:44;11.25;;;3.15;;
21729;SDS011;11027;51.030;13.812;2022-09-17T08:26:13;12.65;;;3.08;;
21729;SDS011;11027;51.030;13.812;2022-09-17T08:28:45;12.52;;;2.95;;
21729;SDS011;11027;51.030;13.812;2022-09-17T08:31:12;9.75;;;2.42;;
21729;SDS011;11027;51.030;13.812;2022-09-17T08:33:38;15.77;;;3.28;;
21729;SDS011;11027;51.030;13.812;2022-09-17T08:36:05;8.55;;;2.85;;
21729;SDS011;11027;51.030;13.812;2022-09-17T08:38:32;11.18;;;2.70;;
21729;SDS011;11027;51.030;13.812;2022-09-17T08:43:35;13.25;;;2.53;;
21729;SDS011;11027;51.030;13.812;2022-09-17T08:46:10;10.27;;;3.38;;
21729;SDS011;11027;51.030;13.812;2022-09-17T08:48:38;11.15;;;2.70;;
21729;SDS011;11027;51.030;13.812;2022-09-17T08:51:27;8.18;;;2.25;;
21729;SDS011;11027;51.030;13.812;2022-09-17T08:56:42;6.28;;;2.15;;
21729;SDS011;11027;51.030;13.812;2022-09-17T08:59:13;9.85;;;2.70;;
21729;SDS011;11027;51.030;13.812;2022-09-17T09:01:58;13.35;;;2.47;;
21729;SDS011;11027;51.030;13.812;2022-09-17T09:07:34;10.43;;;2.60;;
21729;SDS011;11027;51.030;13.812;2022-09-17T09:10:09;14.20;;;3.17;;
21729;SDS011;11027;51.030;13.812;2022-09-17T09:12:42;14.02;;;2.50;;
21729;SDS011;11027;51.030;13.812;2022-09-17T09:18:02;11.00;;;2.88;;
21729;SDS011;11027;51.030;13.812;2022-09-17T09:20:49;13.50;;;2.63;;
21729;SDS011;11027;51.030;13.812;2022-09-17T09:26:17;9.05;;;2.03;;
21729;SDS011;11027;51.030;13.812;2022-09-17T09:31:56;8.88;;;2.53;;
21729;SDS011;11027;51.030;13.812;2022-09-17T09:34:32;7.47;;;2.45;;
21729;SDS011;11027;51.030;13.812;2022-09-17T09:37:19;10.10;;;2.05;;
21729;SDS011;11027;51.030;13.812;2022-09-17T09:39:52;7.13;;;1.70;;
21729;SDS011;11027;51.030;13.812;2022-09-17T09:42:29;5.88;;;1.52;;
21729;SDS011;11027;51.030;13.812;2022-09-17T09:45:13;7.18;;;1.80;;
21729;SDS011;11027;51.030;13.812;2022-09-17T09:47:49;8.27;;;1.58;;
21729;SDS011;11027;51.030;13.812;2022-09-17T09:53:02;8.47;;;1.90;;
21729;SDS011;11027;51.030;13.812;2022-09-17T09:55:54;6.53;;;1.38;;
21729;SDS011;11027;51.030;13.812;2022-09-17T09:58:34;8.43;;;1.50;;
21729;SDS011;11027;51.030;13.812;2022-09-17T10:03:40;7.25;;;1.55;;
21729;SDS011;11027;51.030;13.812;2022-09-17T10:06:10;7.18;;;1.60;;
21729;SDS011;11027;51.030;13.812;2022-09-17T10:11:25;5.65;;;1.55;;
21729;SDS011;11027;51.030;13.812;2022-09-17T10:14:13;7.00;;;1.50;;
21729;SDS011;11027;51.030;13.812;2022-09-17T10:16:47;8.65;;;2.10;;
21729;SDS011;11027;51.030;13.812;2022-09-17T10:19:18;12.15;;;1.92;;
21729;SDS011;11027;51.030;13.812;2022-09-17T10:21:49;5.80;;;1.33;;
21729;SDS011;11027;51.030;13.812;2022-09-17T10:24:23;5.53;;;1.40;;
21729;SDS011;11027;51.030;13.812;2022-09-17T10:27:00;4.28;;;0.80;;
21729;SDS011;11027;51.030;13.812;2022-09-17T10:29:28;5.78;;;1.02;;
21729;SDS011;11027;51.030;13.812;2022-09-17T10:31:57;5.05;;;0.80;;
21729;SDS011;11027;51.030;13.812;2022-09-17T10:34:29;3.55;;;0.85;;
21729;SDS011;11027;51.030;13.812;2022-09-17T10:36:55;4.97;;;1.15;;
21729;SDS011;11027;51.030;13.812;2022-09-17T10:39:34;5.97;;;1.00;;
21729;SDS011;11027;51.030;13.812;2022-09-17T10:44:36;3.23;;;1.00;;
21729;SDS011;11027;51.030;13.812;2022-09-17T10:49:42;3.97;;;1.00;;
21729;SDS011;11027;51.030;13.812;2022-09-17T10:54:53;5.07;;;1.08;;
21729;SDS011;11027;51.030;13.812;2022-09-17T11:00:19;4.40;;;1.10;;
21729;SDS011;11027;51.030;13.812;2022-09-17T11:14:55;5.72;;;1.30;;
21729;SDS011;11027;51.030;13.812;2022-09-17T11:20:31;3.90;;;0.93;;
21729;SDS011;11027;51.030;13.812;2022-09-17T11:23:21;4.72;;;1.20;;
21729;SDS011;11027;51.030;13.812;2022-09-17T11:26:05;6.13;;;1.17;;
21729;SDS011;11027;51.030;13.812;2022-09-17T11:34:34;5.47;;;1.20;;
21729;SDS011;11027;51.030;13.812;2022-09-17T11:37:30;5.60;;;1.20;;
21729;SDS011;11027;51.030;13.812;2022-09-17T11:40:00;6.53;;;1.40;;
21729;SDS011;11027;51.030;13.812;2022-09-17T11:43:17;4.15;;;1.10;;
21729;SDS011;11027;51.030;13.812;2022-09-17T11:45:24;4.68;;;1.05;;
21729;SDS011;11027;51.030;13.812;2022-09-17T11:47:58;7.03;;;1.20;;
21729;SDS011;11027;51.030;13.812;2022-09-17T11:59:03;3.63;;;0.80;;
21729;SDS011;11027;51.030;13.812;2022-09-17T12:01:48;2.70;;;0.98;;
21729;SDS011;11027;51.030;13.812;2022-09-17T12:07:15;4.78;;;0.88;;
21729;SDS011;11027;51.030;13.812;2022-09-17T12:09:41;3.78;;;2.38;;
21729;SDS011;11027;51.030;13.812;2022-09-17T12:12:12;3.33;;;0.80;;
21729;SDS011;11027;51.030;13.812;2022-09-17T12:14:48;6.65;;;1.48;;
21729;SDS011;11027;51.030;13.812;2022-09-17T12:20:00;6.93;;;1.90;;
21729;SDS011;11027;51.030;13.812;2022-09-17T12:22:33;5.35;;;1.02;;
21729;SDS011;11027;51.030;13.812;2022-09-17T12:25:04;5.00;;;1.47;;
21729;SDS011;11027;51.030;13.812;2022-09-17T12:32:44;6.55;;;1.40;;
21729;SDS011;11027;51.030;13.812;2022-09-17T12:44:37;6.20;;;1.27;;
21729;SDS011;11027;51.030;13.812;2022-09-17T12:50:26;6.28;;;1.45;;
21729;SDS011;11027;51.030;13.812;2022-09-17T12:53:13;7.28;;;1.48;;
21729;SDS011;11027;51.030;13.812;2022-09-17T12:59:11;6.57;;;1.52;;
21729;SDS011;11027;51.030;13.812;2022-09-17T13:01:51;7.88;;;1.52;;
21729;SDS011;11027;51.030;13.812;2022-09-17T13:04:35;7.22;;;1.40;;
21729;SDS011;11027;51.030;13.812;2022-09-17T13:10:39;6.88;;;1.58;;
21729;SDS011;11027;51.030;13.812;2022-09-17T13:13:26;4.60;;;1.20;;
21729;SDS011;11027;51.030;13.812;2022-09-17T13:18:56;5.45;;;1.63;;
21729;SDS011;11027;51.030;13.812;2022-09-17T13:21:32;3.40;;;1.30;;
21729;SDS011;11027;51.030;13.812;2022-09-17T13:23:58;6.38;;;1.55;;
21729;SDS011;11027;51.030;13.812;2022-09-17T13:26:34;6.68;;;1.30;;
21729;SDS011;11027;51.030;13.812;2022-09-17T13:29:04;8.00;;;1.45;;
21729;SDS011;11027;51.030;13.812;2022-09-17T13:33:59;6.97;;;1.67;;
21729;SDS011;11027;51.030;13.812;2022-09-17T13:36:34;5.07;;;1.05;;
21729;SDS011;11027;51.030;13.812;2022-09-17T13:42:12;4.00;;;0.85;;
21729;SDS011;11027;51.030;13.812;2022-09-17T13:45:25;2.40;;;0.85;;
21729;SDS011;11027;51.030;13.812;2022-09-17T13:47:48;2.55;;;0.90;;
21729;SDS011;11027;51.030;13.812;2022-09-17T13:55:39;2.92;;;0.93;;
21729;SDS011;11027;51.030;13.812;2022-09-17T13:58:12;4.00;;;0.90;;
21729;SDS011;11027;51.030;13.812;2022-09-17T14:01:01;2.50;;;0.60;;
21729;SDS011;11027;51.030;13.812;2022-09-17T14:06:44;2.25;;;0.80;;
21729;SDS011;11027;51.030;13.812;2022-09-17T14:19:50;5.25;;;1.45;;
21729;SDS011;11027;51.030;13.812;2022-09-17T14:22:13;5.35;;;1.27;;
21729;SDS011;11027;51.030;13.812;2022-09-17T14:27:20;6.47;;;1.48;;
21729;SDS011;11027;51.030;13.812;2022-09-17T14:32:23;5.18;;;1.30;;
21729;SDS011;11027;51.030;13.812;2022-09-17T14:37:59;6.57;;;1.30;;
21729;SDS011;11027;51.030;13.812;2022-09-17T14:40:45;5.50;;;1.45;;
21729;SDS011;11027;51.030;13.812;2022-09-17T14:46:08;6.55;;;1.20;;
21729;SDS011;11027;51.030;13.812;2022-09-17T14:48:42;5.68;;;1.52;;
21729;SDS011;11027;51.030;13.812;2022-09-17T14:53:42;10.45;;;1.85;;
21729;SDS011;11027;51.030;13.812;2022-09-17T14:56:10;5.88;;;1.50;;
21729;SDS011;11027;51.030;13.812;2022-09-17T14:58:42;5.88;;;1.33;;
21729;SDS011;11027;51.030;13.812;2022-09-17T15:01:20;7.65;;;1.83;;
21729;SDS011;11027;51.030;13.812;2022-09-17T15:07:07;8.38;;;2.75;;
21729;SDS011;11027;51.030;13.812;2022-09-17T15:09:35;13.07;;;1.43;;
21729;SDS011;11027;51.030;13.812;2022-09-17T15:12:01;9.52;;;1.35;;
21729;SDS011;11027;51.030;13.812;2022-09-17T15:14:29;7.22;;;1.30;;
21729;SDS011;11027;51.030;13.812;2022-09-17T15:16:57;5.60;;;1.40;;
21729;SDS011;11027;51.030;13.812;2022-09-17T15:19:26;7.65;;;1.50;;
21729;SDS011;11027;51.030;13.812;2022-09-17T15:21:57;6.57;;;1.50;;
21729;SDS011;11027;51.030;13.812;2022-09-17T15:24:38;5.57;;;1.30;;
21729;SDS011;11027;51.030;13.812;2022-09-17T15:29:55;8.50;;;1.58;;
21729;SDS011;11027;51.030;13.812;2022-09-17T15:32:25;7.53;;;1.48;;
21729;SDS011;11027;51.030;13.812;2022-09-17T15:37:43;5.90;;;1.15;;
21729;SDS011;11027;51.030;13.812;2022-09-17T15:40:12;8.40;;;1.48;;
21729;SDS011;11027;51.030;13.812;2022-09-17T15:42:56;7.43;;;1.50;;
21729;SDS011;11027;51.030;13.812;2022-09-17T15:45:28;6.57;;;1.52;;
21729;SDS011;11027;51.030;13.812;2022-09-17T15:48:01;9.90;;;1.73;;
21729;SDS011;11027;51.030;13.812;2022-09-17T15:50:28;8.93;;;1.70;;
21729;SDS011;11027;51.030;13.812;2022-09-17T15:55:35;6.90;;;1.77;;
21729;SDS011;11027;51.030;13.812;2022-09-17T15:58:25;8.48;;;1.73;;
21729;SDS011;11027;51.030;13.812;2022-09-17T16:06:15;4.80;;;1.13;;
21729;SDS011;11027;51.030;13.812;2022-09-17T16:08:52;5.38;;;0.80;;
21729;SDS011;11027;51.030;13.812;2022-09-17T16:11:28;5.43;;;1.20;;
21729;SDS011;11027;51.030;13.812;2022-09-17T16:13:55;4.03;;;0.93;;
21729;SDS011;11027;51.030;13.812;2022-09-17T16:16:23;7.95;;;1.40;;
21729;SDS011;11027;51.030;13.812;2022-09-17T16:18:58;6.10;;;1.10;;
21729;SDS011;11027;51.030;13.812;2022-09-17T16:21:24;6.93;;;1.45;;
21729;SDS011;11027;51.030;13.812;2022-09-17T16:23:49;2.80;;;1.05;;
21729;SDS011;11027;51.030;13.812;2022-09-17T16:26:22;6.60;;;1.35;;
21729;SDS011;11027;51.030;13.812;2022-09-17T16:28:52;2.47;;;0.82;;
21729;SDS011;11027;51.030;13.812;2022-09-17T16:31:23;6.93;;;1.33;;
21729;SDS011;11027;51.030;13.812;2022-09-17T16:33:49;8.15;;;1.40;;
21729;SDS011;11027;51.030;13.812;2022-09-17T16:36:15;6.05;;;1.02;;
21729;SDS011;11027;51.030;13.812;2022-09-17T16:38:41;5.65;;;1.40;;
21729;SDS011;11027;51.030;13.812;2022-09-17T16:41:06;7.95;;;1.88;;
21729;SDS011;11027;51.030;13.812;2022-09-17T16:43:32;7.22;;;1.48;;
21729;SDS011;11027;51.030;13.812;2022-09-17T16:45:58;4.88;;;1.10;;
21729;SDS011;11027;51.030;13.812;2022-09-17T16:48:25;11.55;;;1.50;;
21729;SDS011;11027;51.030;13.812;2022-09-17T16:50:53;5.55;;;1.80;;
21729;SDS011;11027;51.030;13.812;2022-09-17T16:53:19;12.07;;;3.72;;
21729;SDS011;11027;51.030;13.812;2022-09-17T16:55:44;7.25;;;1.55;;
21729;SDS011;11027;51.030;13.812;2022-09-17T16:58:09;8.35;;;1.90;;
21729;SDS011;11027;51.030;13.812;2022-09-17T17:00:35;10.63;;;1.50;;
21729;SDS011;11027;51.030;13.812;2022-09-17T17:03:01;6.60;;;1.67;;
21729;SDS011;11027;51.030;13.812;2022-09-17T17:05:28;10.52;;;1.60;;
21729;SDS011;11027;51.030;13.812;2022-09-17T17:07:53;9.70;;;2.20;;
21729;SDS011;11027;51.030;13.812;2022-09-17T17:10:19;4.88;;;1.60;;
21729;SDS011;11027;51.030;13.812;2022-09-17T17:12:45;5.68;;;2.00;;
21729;SDS011;11027;51.030;13.812;2022-09-17T17:15:10;6.60;;;3.08;;
21729;SDS011;11027;51.030;13.812;2022-09-17T17:17:36;6.65;;;1.63;;
21729;SDS011;11027;51.030;13.812;2022-09-17T17:20:04;5.35;;;1.73;;
21729;SDS011;11027;51.030;13.812;2022-09-17T17:22:33;5.97;;;1.95;;
21729;SDS011;11027;51.030;13.812;2022-09-17T17:25:00;4.57;;;1.33;;
21729;SDS011;11027;51.030;13.812;2022-09-17T17:27:26;9.52;;;1.60;;
21729;SDS011;11027;51.030;13.812;2022-09-17T17:29:51;5.00;;;1.83;;
21729;SDS011;11027;51.030;13.812;2022-09-17T17:32:16;5.85;;;2.88;;
21729;SDS011;11027;51.030;13.812;2022-09-17T17:34:42;7.82;;;1.95;;
21729;SDS011;11027;51.030;13.812;2022-09-17T17:37:07;5.97;;;2.00;;
21729;SDS011;11027;51.030;13.812;2022-09-17T17:39:32;6.30;;;1.85;;
21729;SDS011;11027;51.030;13.812;2022-09-17T17:41:58;6.82;;;1.80;;
21729;SDS011;11027;51.030;13.812;2022-09-17T17:44:23;8.50;;;2.20;;
21729;SDS011;11027;51.030;13.812;2022-09-17T17:46:48;6.80;;;1.80;;